Time;durP1;ratioP1;P1;durP2;ratioP2;P2;SDS_P1;SDS_P2;PMS_P1;PMS_P2;Temp;Humidity;BMP_temperature;BMP_pressure;BME280_temperature;BME280_humidity;BME280_pressure;Samples;Min_cycle;Max_cycle;Signal;HPM_P1;HPM_P2
2023/01/01 00:01:39;;;;;;;11.50;4.82;;;;;;;-148.88;61.47;74895.78;4993311;28;20026;-73
2023/01/01 00:04:04;;;;;;;11.15;4.40;;;;;;;-148.88;60.92;74883.59;4975026;28;20026;-73
2023/01/01 00:06:29;;;;;;;10.10;4.55;;;;;;;-148.88;61.57;74887.66;4993436;28;20030;-73
2023/01/01 00:11:39;;;;;;;;;;;;;;;-148.88;61.15;74887.66;4994163;28;20117;-73
2023/01/01 00:14:04;;;;;;;13.73;5.13;;;;;;;-148.88;62.38;74903.91;4993342;28;20338;-73
2023/01/01 00:16:29;;;;;;;10.35;4.70;;;;;;;-148.88;61.93;74891.72;4993357;28;20026;-73
2023/01/01 00:18:54;;;;;;;11.48;5.20;;;;;;;-148.88;61.14;74879.53;4993319;28;20101;-73
2023/01/01 00:21:20;;;;;;;8.18;4.47;;;;;;;-148.88;60.69;74867.34;4993317;28;20386;-74
2023/01/01 00:23:45;;;;;;;10.50;4.68;;;;;;;-148.88;61.10;74867.34;4993241;28;20019;-73
2023/01/01 00:26:15;;;;;;;11.88;5.07;;;;;;;-148.88;59.89;74853.13;4993402;28;20034;-73
2023/01/01 00:28:41;;;;;;;12.73;5.18;;;;;;;-148.88;60.49;74867.34;4993475;28;20098;-73
2023/01/01 00:31:11;;;;;;;11.73;5.28;;;;;;;-148.88;61.54;74881.56;4975721;28;20022;-73
2023/01/01 00:33:37;;;;;;;10.73;5.75;;;;;;;-148.88;60.91;74879.53;4993102;28;20026;-74
2023/01/01 00:36:15;;;;;;;11.20;5.78;;;;;;;-148.88;61.01;74875.47;4993095;28;20479;-73
2023/01/01 00:38:42;;;;;;;15.60;6.15;;;;;;;-148.88;61.28;74879.53;4993016;28;20054;-73
2023/01/01 00:41:07;;;;;;;12.07;6.75;;;;;;;-148.88;61.91;74883.59;4993273;28;20497;-73
2023/01/01 00:43:32;;;;;;;14.02;6.88;;;;;;;-148.88;60.80;74869.38;4999564;28;20129;-73
2023/01/01 00:45:58;;;;;;;13.20;6.80;;;;;;;-148.88;61.55;74887.66;4991660;28;20113;-73
2023/01/01 00:48:23;;;;;;;14.73;7.03;;;;;;;-148.88;62.30;74897.81;4993364;28;20505;-73
2023/01/01 00:50:50;;;;;;;12.68;6.70;;;;;;;-148.88;62.04;74887.66;4992788;28;20030;-73
2023/01/01 00:53:16;;;;;;;15.02;8.35;;;;;;;-148.88;61.39;74883.59;4992732;28;20069;-73
2023/01/01 00:55:42;;;;;;;16.60;7.60;;;;;;;-148.88;60.45;74867.34;4992684;28;20080;-73
2023/01/01 00:58:09;;;;;;;16.08;7.55;;;;;;;-148.88;60.26;74863.28;4991443;28;20027;-73
2023/01/01 01:00:34;;;;;;;16.67;8.23;;;;;;;-148.88;60.88;74875.47;4992905;28;20052;-73
2023/01/01 01:02:59;;;;;;;13.77;7.60;;;;;;;-148.88;60.54;74871.41;4992645;28;20026;-74
2023/01/01 01:05:25;;;;;;;15.10;8.27;;;;;;;-148.88;61.00;74883.59;4992715;28;20037;-73
2023/01/01 01:07:50;;;;;;;17.38;8.93;;;;;;;-148.88;62.63;74905.94;4991181;28;20029;-73
2023/01/01 01:10:16;;;;;;;14.70;8.48;;;;;;;-148.88;64.84;74914.06;4993199;28;20062;-73
2023/01/01 01:12:41;;;;;;;15.20;9.07;;;;;;;-148.88;66.26;74922.19;4992632;28;20495;-73
2023/01/01 01:15:08;;;;;;;14.82;8.65;;;;;;;-148.88;67.60;74942.47;4994243;28;20057;-73
2023/01/01 01:17:35;;;;;;;16.45;8.88;;;;;;;-148.88;66.13;74944.53;4996475;28;20550;-74
2023/01/01 01:20:01;;;;;;;15.25;8.30;;;;;;;-148.88;64.96;74936.41;4995126;28;20027;-73
2023/01/01 01:22:26;;;;;;;13.63;8.55;;;;;;;-148.88;64.70;74932.34;4996445;28;20044;-73
2023/01/01 01:24:51;;;;;;;14.93;8.02;;;;;;;-148.88;63.71;74920.16;4995190;28;20108;-74
2023/01/01 01:27:16;;;;;;;13.52;7.97;;;;;;;-148.88;63.27;74916.09;4996368;28;20053;-73
2023/01/01 01:29:42;;;;;;;12.13;7.60;;;;;;;-148.88;63.96;74922.19;4994923;28;20395;-73
2023/01/01 01:32:08;;;;;;;13.82;7.68;;;;;;;-148.88;63.35;74920.16;4996249;28;20067;-74
2023/01/01 01:34:34;;;;;;;16.98;7.80;;;;;;;-148.88;62.52;74912.03;4996133;28;20053;-74
2023/01/01 01:36:59;;;;;;;13.45;7.15;;;;;;;-148.88;62.54;74912.03;4996146;28;20034;-74
2023/01/01 01:39:24;;;;;;;15.20;7.60;;;;;;;-148.88;62.07;74910.00;4996165;28;20033;-73
2023/01/01 01:41:49;;;;;;;12.65;7.38;;;;;;;-148.88;61.12;74895.78;4996191;28;20019;-74
2023/01/01 01:44:46;;;;;;;15.73;7.72;;;;;;;-148.88;61.38;74895.78;4994679;28;20048;-73
2023/01/01 01:47:35;;;;;;;12.05;7.45;;;;;;;-148.88;60.80;74903.91;4994897;28;20038;-74
2023/01/01 01:50:06;;;;;;;12.15;7.05;;;;;;;-148.88;60.68;74891.72;4995053;28;20398;-74
2023/01/01 01:52:35;;;;;;;16.05;6.93;;;;;;;-148.88;60.42;74907.97;4995977;28;20027;-74
2023/01/01 01:55:02;;;;;;;15.07;6.97;;;;;;;-148.88;61.70;74916.09;4995920;28;20390;-74
2023/01/01 01:57:29;;;;;;;13.73;7.80;;;;;;;-148.88;60.44;74907.97;4995942;28;20049;-74
2023/01/01 01:59:56;;;;;;;16.48;7.50;;;;;;;-148.88;61.55;74928.28;4995941;28;20030;-74
2023/01/01 02:02:31;;;;;;;15.32;7.63;;;;;;;-148.88;61.14;74926.25;4995725;28;20026;-74
2023/01/01 02:04:57;;;;;;;14.65;7.85;;;;;;;-148.88;61.27;74928.28;4994395;28;20521;-74
2023/01/01 02:07:25;;;;;;;16.45;7.22;;;;;;;-148.88;59.53;74914.06;4995808;28;20030;-74
2023/01/01 02:09:51;;;;;;;16.33;7.38;;;;;;;-148.88;61.02;74940.47;4995643;28;20022;-74
2023/01/01 02:12:16;;;;;;;13.65;6.57;;;;;;;-148.88;59.15;74920.16;4995807;28;20019;-73
2023/01/01 02:14:42;;;;;;;13.23;6.68;;;;;;;-148.88;60.16;74936.41;4995577;28;20105;-73
2023/01/01 02:17:13;;;;;;;15.90;6.63;;;;;;;-148.88;60.61;74944.53;4994451;28;20019;-73
2023/01/01 02:20:09;;;;;;;16.40;5.82;;;;;;;-148.88;60.64;74958.72;5011122;28;20216;-73
2023/01/01 02:22:34;;;;;;;12.80;6.03;;;;;;;-148.88;60.28;74944.53;4989574;28;20041;-73
2023/01/01 02:25:24;;;;;;;13.50;5.73;;;;;;;-148.88;61.01;74956.69;4995465;28;20022;-74
2023/01/01 02:28:19;;;;;;;9.35;5.07;;;;;;;-148.88;60.79;74956.69;4994652;28;20260;-73
2023/01/01 02:34:10;;;;;;;12.95;5.95;;;;;;;-148.88;61.04;74977.00;4995594;28;20082;-73
2023/01/01 02:36:42;;;;;;;15.15;5.35;;;;;;;-148.88;60.26;74985.13;4995419;28;20068;-74
2023/01/01 02:39:09;;;;;;;11.13;5.38;;;;;;;-148.88;59.76;74956.69;4995242;28;20498;-73
2023/01/01 02:41:47;;;;;;;12.23;5.43;;;;;;;-148.88;59.75;74960.75;4995138;28;20034;-73
2023/01/01 02:44:12;;;;;;;11.27;5.53;;;;;;;-148.88;60.56;74983.09;5034986;23;20200;-92
2023/01/01 02:46:38;;;;;;;12.15;5.80;;;;;;;-148.88;59.68;74972.94;5016854;28;20474;-92
2023/01/01 02:49:04;;;;;;;10.02;5.25;;;;;;;-148.88;59.50;74972.94;5017177;28;20026;-90
2023/01/01 02:51:44;;;;;;;13.07;5.60;;;;;;;-148.88;59.91;74985.13;5015789;28;20084;-90
2023/01/01 02:54:18;;;;;;;10.95;5.50;;;;;;;-148.88;60.21;74989.19;5015956;28;20405;-90
2023/01/01 02:57:06;;;;;;;9.60;5.22;;;;;;;-148.88;59.50;74997.31;5056228;22;20057;-82
2023/01/01 03:02:34;;;;;;;9.75;4.72;;;;;;;-148.88;59.32;74995.28;5019027;28;20059;-82
2023/01/01 03:05:24;;;;;;;13.75;5.30;;;;;;;-148.88;59.08;74995.28;5017815;28;20103;-83
2023/01/01 03:08:03;;;;;;;12.68;5.22;;;;;;;-148.88;58.70;74989.19;5018005;28;20026;-82
2023/01/01 03:10:43;;;;;;;12.50;4.93;;;;;;;-148.88;57.87;74972.94;5031183;28;20057;-82
2023/01/01 03:13:29;;;;;;;11.75;4.72;;;;;;;-148.88;56.98;74972.94;5030166;28;20069;-82
2023/01/01 03:16:15;;;;;;;9.00;4.47;;;;;;;-148.88;55.74;74972.94;5015085;28;20057;-82
2023/01/01 03:19:09;;;;;;;12.07;4.50;;;;;;;-148.88;56.24;74977.00;5016212;28;20474;-81
2023/01/01 03:21:35;;;;;;;;;;;;;;;-148.88;56.37;74989.19;5016060;28;20037;-82
2023/01/01 03:24:00;;;;;;;9.90;4.05;;;;;;;-148.88;55.97;74997.31;5016203;28;19910;-82
2023/01/01 03:26:30;;;;;;;10.55;3.70;;;;;;;-148.88;55.36;74989.19;5015280;28;20138;-83
2023/01/01 03:28:58;;;;;;;7.30;3.63;;;;;;;-148.88;55.76;74993.25;5031499;28;20022;-82
2023/01/01 03:31:25;;;;;;;7.22;3.50;;;;;;;-148.88;56.20;75013.56;5016482;28;20034;-83
2023/01/01 03:34:13;;;;;;;7.38;3.40;;;;;;;-148.88;55.69;75005.44;5015982;28;20478;-82
2023/01/01 03:36:44;;;;;;;6.50;3.13;;;;;;;-148.88;56.04;75015.59;5014798;28;20053;-82
2023/01/01 03:39:15;;;;;;;7.28;3.30;;;;;;;-148.88;56.58;75017.63;5015282;28;20026;-82
2023/01/01 03:41:52;;;;;;;7.03;3.10;;;;;;;-148.88;56.08;75017.63;5015426;28;20462;-81
2023/01/01 03:44:26;;;;;;;7.15;3.20;;;;;;;-148.88;55.18;75007.47;5015171;28;20061;-82
2023/01/01 03:46:52;;;;;;;8.35;3.15;;;;;;;-148.88;54.98;75013.56;5014745;28;20026;-82
2023/01/01 03:49:18;;;;;;;7.15;2.72;;;;;;;-148.88;55.72;75023.72;5014408;28;20462;-83
2023/01/01 03:52:04;;;;;;;8.25;2.85;;;;;;;-148.88;55.72;75025.75;5014231;28;20109;-82
2023/01/01 03:54:37;;;;;;;7.75;3.00;;;;;;;-148.88;56.14;75029.81;5014830;28;20055;-82
2023/01/01 03:57:16;;;;;;;5.80;2.63;;;;;;;-148.88;55.19;75023.72;5014216;28;20050;-82
2023/01/01 03:59:55;;;;;;;8.20;2.95;;;;;;;-148.88;55.71;75017.63;4996786;28;20026;-83
2023/01/01 04:02:53;;;;;;;7.68;2.55;;;;;;;-148.88;55.95;75025.75;5014580;28;20080;-82
2023/01/01 04:05:20;;;;;;;5.05;2.50;;;;;;;-148.88;55.93;75033.88;5008916;28;20045;-83
2023/01/01 04:07:47;;;;;;;7.75;2.58;;;;;;;-148.88;56.80;75044.03;5014450;28;20064;-82
2023/01/01 04:10:18;;;;;;;6.88;2.20;;;;;;;-148.88;56.53;75048.09;5014368;28;20026;-82
2023/01/01 04:12:47;;;;;;;6.78;2.47;;;;;;;-148.88;56.28;75039.97;5014582;28;20061;-82
2023/01/01 04:15:12;;;;;;;6.65;2.33;;;;;;;-148.88;56.97;75050.13;5014228;28;20028;-84
2023/01/01 04:17:37;;;;;;;4.97;2.10;;;;;;;-148.88;56.92;75050.13;5014081;28;20030;-83
2023/01/01 04:20:06;;;;;;;7.82;2.40;;;;;;;-148.88;56.92;75062.31;5014583;28;20022;-84
2023/01/01 04:22:32;;;;;;;6.40;2.30;;;;;;;-148.88;56.65;75058.25;4996747;28;20059;-84
2023/01/01 04:24:57;;;;;;;5.60;2.35;;;;;;;-148.88;56.80;75062.31;4995840;28;20108;-82
2023/01/01 04:27:23;;;;;;;7.90;2.55;;;;;;;-148.88;56.79;75054.19;5013590;28;20029;-84
2023/01/01 04:29:48;;;;;;;9.40;2.10;;;;;;;-148.88;57.36;75066.38;4995860;28;20026;-84
2023/01/01 04:32:13;;;;;;;6.85;2.42;;;;;;;-148.88;56.98;75066.38;5013634;28;20045;-82
2023/01/01 04:34:39;;;;;;;4.00;2.15;;;;;;;-148.88;56.74;75054.19;5013586;28;20019;-84
2023/01/01 04:37:04;;;;;;;6.93;2.28;;;;;;;-148.88;57.26;75078.56;5013791;28;20033;-83
2023/01/01 04:39:29;;;;;;;4.97;2.00;;;;;;;-148.88;56.70;75070.44;4996974;28;20030;-84
2023/01/01 04:41:55;;;;;;;5.80;2.00;;;;;;;-148.88;57.22;75084.66;5014079;28;20026;-84
2023/01/01 04:44:20;;;;;;;8.38;2.47;;;;;;;-148.88;57.43;75086.69;5014038;28;20103;-84
2023/01/01 04:46:45;;;;;;;6.15;1.80;;;;;;;-148.88;58.16;75100.88;5014020;28;20508;-83
2023/01/01 04:49:10;;;;;;;7.35;2.30;;;;;;;-148.88;58.13;75092.78;5013164;28;20026;-84
2023/01/01 04:51:36;;;;;;;6.28;1.98;;;;;;;-148.88;58.08;75098.84;5013456;28;20036;-84
2023/01/01 04:54:01;;;;;;;6.82;2.00;;;;;;;-148.88;58.04;75094.81;4997189;28;20113;-83
2023/01/01 04:56:27;;;;;;;6.68;2.00;;;;;;;-148.88;57.97;75082.63;5013649;28;20029;-84
2023/01/01 04:58:52;;;;;;;8.18;2.50;;;;;;;-148.88;57.72;75078.56;4995664;28;20033;-84
2023/01/01 05:01:23;;;;;;;7.28;1.80;;;;;;;-148.88;58.05;75078.56;5013395;28;20032;-84
2023/01/01 05:03:49;;;;;;;5.25;1.60;;;;;;;-148.88;58.44;75084.66;5013325;28;20032;-84
2023/01/01 05:06:15;;;;;;;5.40;1.90;;;;;;;-148.88;59.07;75106.97;4995768;28;20397;-84
2023/01/01 05:08:42;;;;;;;3.95;1.67;;;;;;;-148.88;58.59;75082.63;4996022;28;20028;-84
2023/01/01 05:11:10;;;;;;;4.90;1.70;;;;;;;-148.88;58.80;75100.88;4996698;28;20030;-83
2023/01/01 05:13:41;;;;;;;5.03;1.70;;;;;;;-148.88;58.47;75111.03;5014294;28;20034;-84
2023/01/01 05:16:09;;;;;;;3.67;1.58;;;;;;;-148.88;58.26;75104.94;5013429;28;20112;-84
2023/01/01 05:18:35;;;;;;;6.15;1.92;;;;;;;-148.88;59.47;75127.28;5013414;28;20112;-85
2023/01/01 05:21:06;;;;;;;4.75;1.50;;;;;;;-148.88;58.54;75104.94;5013852;28;20482;-84
2023/01/01 05:23:32;;;;;;;5.18;1.80;;;;;;;-148.88;58.61;75117.13;4996445;28;20034;-85
2023/01/01 05:25:57;;;;;;;5.82;1.90;;;;;;;-148.88;58.73;75111.03;5014128;28;20026;-84
2023/01/01 05:28:23;;;;;;;6.60;1.83;;;;;;;-148.88;59.62;75135.41;5014532;28;20128;-84
2023/01/01 05:30:50;;;;;;;5.85;2.03;;;;;;;-148.88;59.43;75135.41;5014289;28;20033;-83
2023/01/01 05:33:15;;;;;;;5.10;1.60;;;;;;;-148.88;59.15;75127.28;5013403;28;20022;-84
2023/01/01 05:35:40;;;;;;;4.10;1.60;;;;;;;-148.88;58.76;75135.41;5013152;28;20454;-84
2023/01/01 05:38:06;;;;;;;6.93;1.70;;;;;;;-148.88;59.47;75139.47;5013177;28;20022;-83
2023/01/01 05:40:31;;;;;;;5.72;1.65;;;;;;;-148.88;59.76;75153.69;5013631;28;20061;-84
2023/01/01 05:42:56;;;;;;;8.85;1.98;;;;;;;-148.88;59.98;75143.53;5013073;28;20033;-84
2023/01/01 05:45:21;;;;;;;2.90;1.15;;;;;;;-148.88;59.80;75143.53;5013717;28;20516;-84
2023/01/01 05:47:47;;;;;;;7.65;1.50;;;;;;;-148.88;60.16;75127.28;4995660;28;20022;-83
2023/01/01 05:50:12;;;;;;;5.35;1.58;;;;;;;-148.88;59.26;75127.28;5012822;28;20367;-85
2023/01/01 05:52:37;;;;;;;6.35;1.25;;;;;;;-148.88;60.42;75141.50;5012742;28;20025;-84
2023/01/01 05:55:03;;;;;;;5.25;1.52;;;;;;;-148.88;60.00;75141.50;5012785;28;20021;-85
2023/01/01 05:57:28;;;;;;;3.13;1.23;;;;;;;-148.88;59.71;75131.34;5013186;28;20041;-84
2023/01/01 05:59:54;;;;;;;4.00;1.40;;;;;;;-148.88;60.10;75135.41;4995892;28;20065;-84
2023/01/01 06:02:19;;;;;;;5.10;1.50;;;;;;;-148.88;60.41;75131.34;5015751;28;20040;-84
2023/01/01 06:04:45;;;;;;;4.20;1.40;;;;;;;-148.88;60.89;75129.31;5016213;28;20032;-84
2023/01/01 06:07:10;;;;;;;5.47;1.60;;;;;;;-148.88;61.67;75151.66;4998912;28;20053;-84
2023/01/01 06:09:35;;;;;;;3.70;1.42;;;;;;;-148.88;62.06;75147.59;5016648;28;20079;-84
2023/01/01 06:12:01;;;;;;;6.03;1.52;;;;;;;-148.88;63.89;75163.84;5016455;28;20030;-83
2023/01/01 06:14:26;;;;;;;6.18;1.67;;;;;;;-148.88;62.60;75143.53;4998580;28;20486;-83
2023/01/01 06:16:51;;;;;;;5.97;1.92;;;;;;;-148.88;63.37;75169.94;4998875;28;20056;-82
2023/01/01 06:19:17;;;;;;;3.28;1.02;;;;;;;-148.88;62.47;75159.78;4999089;28;20025;-84
2023/01/01 06:21:42;;;;;;;7.70;1.55;;;;;;;-148.88;63.12;75171.97;5016405;28;20026;-84
2023/01/01 06:24:07;;;;;;;5.13;1.48;;;;;;;-148.88;62.55;75176.03;4999089;28;20112;-83
2023/01/01 06:26:33;;;;;;;3.35;1.42;;;;;;;-148.88;62.76;75186.19;5016554;28;20030;-84
2023/01/01 06:29:00;;;;;;;4.50;1.33;;;;;;;-148.88;62.43;75180.09;5016752;28;20029;-84
2023/01/01 06:31:26;;;;;;;5.43;1.67;;;;;;;-148.88;63.15;75196.34;4998558;28;20032;-83
2023/01/01 06:33:52;;;;;;;5.45;1.58;;;;;;;-148.88;63.11;75210.56;4998970;28;20021;-83
2023/01/01 06:36:20;;;;;;;5.35;1.50;;;;;;;-148.88;62.12;75184.16;5016460;28;20097;-83
2023/01/01 06:38:48;;;;;;;4.57;1.42;;;;;;;-148.88;63.36;75206.50;4998565;28;20030;-84
2023/01/01 06:41:18;;;;;;;3.08;1.48;;;;;;;-148.88;63.34;75206.50;5016363;28;20022;-83
2023/01/01 06:43:44;;;;;;;5.53;1.60;;;;;;;-148.88;63.16;75212.59;5016880;28;20109;-83
2023/01/01 06:46:26;;;;;;;4.03;1.40;;;;;;;-148.88;63.58;75208.53;5015394;28;20022;-81
2023/01/01 06:49:04;;;;;;;7.70;1.60;;;;;;;-148.88;64.72;75218.69;5015742;28;20040;-82
2023/01/01 06:51:31;;;;;;;3.80;1.40;;;;;;;-148.88;64.90;75226.81;5015632;28;20026;-83
2023/01/01 06:53:58;;;;;;;3.83;1.42;;;;;;;-148.88;64.82;75228.84;4997907;28;20080;-82
2023/01/01 06:56:24;;;;;;;4.72;1.50;;;;;;;-148.88;65.99;75220.72;4997945;28;20061;-83
2023/01/01 06:58:49;;;;;;;5.68;1.80;;;;;;;-148.88;65.83;75236.97;5015256;28;20469;-83
2023/01/01 07:01:20;;;;;;;4.38;1.30;;;;;;;-148.88;66.76;75249.16;5015315;28;20029;-82
2023/01/01 07:03:54;;;;;;;5.22;1.50;;;;;;;-148.88;64.43;75247.13;5015779;28;20030;-82
2023/01/01 07:06:20;;;;;;;5.13;1.60;;;;;;;-148.88;64.71;75251.19;5015687;28;20391;-82
2023/01/01 07:08:46;;;;;;;4.43;1.50;;;;;;;-148.88;64.44;75257.28;5015663;28;20033;-82
2023/01/01 07:11:11;;;;;;;4.95;1.65;;;;;;;-148.88;64.25;75267.44;5015308;28;20065;-81
2023/01/01 07:13:43;;;;;;;3.67;1.30;;;;;;;-148.88;64.03;75265.41;4998454;28;20029;-82
2023/01/01 07:16:08;;;;;;;5.25;1.60;;;;;;;-148.88;64.66;75285.69;5015821;28;20053;-82
2023/01/01 07:18:34;;;;;;;7.82;1.60;;;;;;;-148.88;63.97;75281.66;4998455;28;20478;-81
2023/01/01 07:21:02;;;;;;;7.00;1.63;;;;;;;-148.88;64.88;75301.94;5015204;28;20160;-81
2023/01/01 07:23:29;;;;;;;6.22;1.70;;;;;;;-148.88;64.78;75293.81;4998268;28;20026;-83
2023/01/01 07:25:55;;;;;;;4.55;1.55;;;;;;;-148.88;64.69;75287.72;5015347;28;20100;-81
2023/01/01 07:28:22;;;;;;;6.25;1.63;;;;;;;-148.88;64.24;75289.75;5015211;28;20123;-83
2023/01/01 07:30:48;;;;;;;5.25;1.50;;;;;;;-148.88;63.55;75293.81;5015277;28;20501;-82
2023/01/01 07:33:18;;;;;;;4.57;1.73;;;;;;;-148.88;64.58;75306.00;4997631;28;20029;-82
2023/01/01 07:35:44;;;;;;;5.60;1.48;;;;;;;-148.88;65.11;75318.19;5015148;28;20033;-82
2023/01/01 07:38:10;;;;;;;7.15;1.50;;;;;;;-148.88;64.95;75326.31;5015048;28;20021;-82
2023/01/01 07:40:35;;;;;;;4.50;1.55;;;;;;;-148.88;65.21;75322.25;4997060;28;20022;-82
2023/01/01 07:43:00;;;;;;;5.25;1.33;;;;;;;-148.88;66.07;75330.38;5014894;28;20026;-82
2023/01/01 07:45:26;;;;;;;5.63;1.73;;;;;;;-148.88;65.16;75328.34;5015522;28;20026;-82
2023/01/01 07:47:53;;;;;;;5.80;1.50;;;;;;;-148.88;65.85;75334.44;4997559;28;20061;-82
2023/01/01 07:50:19;;;;;;;4.97;1.50;;;;;;;-148.88;68.96;75350.69;5014918;28;20030;-82
2023/01/01 07:52:45;;;;;;;4.22;1.55;;;;;;;-148.88;70.12;75373.03;4997472;28;20075;-83
2023/01/01 07:55:14;;;;;;;5.60;1.75;;;;;;;-148.88;71.34;75377.09;5014584;28;20033;-82
2023/01/01 07:57:41;;;;;;;5.75;1.55;;;;;;;-148.88;71.94;75391.31;4996629;28;20022;-82
2023/01/01 08:00:07;;;;;;;5.85;1.83;;;;;;;-148.88;74.26;75415.69;5013969;28;20071;-81
2023/01/01 08:02:33;;;;;;;3.75;1.33;;;;;;;-148.88;74.70;75419.75;4996821;28;20044;-82
2023/01/01 08:04:58;;;;;;;4.05;1.60;;;;;;;-148.88;71.97;75399.44;5014155;28;20429;-81
2023/01/01 08:07:23;;;;;;;4.70;1.80;;;;;;;-148.88;72.68;75409.59;5014491;28;20030;-82
2023/01/01 08:09:48;;;;;;;5.40;1.70;;;;;;;-148.88;73.96;75423.81;5014407;28;20026;-82
2023/01/01 08:12:14;;;;;;;5.40;1.60;;;;;;;-148.88;74.79;75427.88;5014020;28;20077;-81
2023/01/01 08:14:39;;;;;;;5.63;1.65;;;;;;;-148.88;75.58;75442.09;4996540;28;20022;-82
2023/01/01 08:17:05;;;;;;;4.75;1.77;;;;;;;-148.88;76.81;75462.41;5014435;28;20034;-82
2023/01/01 08:19:30;;;;;;;8.05;2.08;;;;;;;-148.88;79.04;75478.66;4996809;28;20029;-82
2023/01/01 08:21:55;;;;;;;4.72;1.90;;;;;;;-148.88;82.79;75509.13;4996848;28;20034;-81
2023/01/01 08:24:20;;;;;;;5.55;1.70;;;;;;;-148.88;83.18;75517.25;5014194;28;20022;-82
2023/01/01 08:26:48;;;;;;;6.15;1.90;;;;;;;-148.88;84.42;75537.56;5014541;28;20030;-83
2023/01/01 08:29:13;;;;;;;6.03;2.03;;;;;;;-148.88;84.75;75549.75;5014783;28;20435;-81
2023/01/01 08:31:38;;;;;;;7.63;1.90;;;;;;;-148.88;87.11;75563.97;5013945;28;20064;-82
2023/01/01 08:34:03;;;;;;;6.32;1.95;;;;;;;-148.88;90.11;75602.53;4996407;28;20025;-82
2023/01/01 08:36:29;;;;;;;6.50;2.45;;;;;;;-148.88;92.49;75628.94;5013675;28;20117;-83
2023/01/01 08:38:54;;;;;;;5.55;1.85;;;;;;;-148.88;94.46;75643.16;5013937;28;20037;-82
2023/01/01 08:41:20;;;;;;;7.85;2.35;;;;;;;-148.88;94.82;75663.47;5014161;28;20105;-82
2023/01/01 08:43:45;;;;;;;6.15;2.20;;;;;;;-148.88;94.50;75667.53;4995749;28;20030;-82
2023/01/01 08:46:10;;;;;;;7.30;2.10;;;;;;;-148.88;95.30;75667.53;5013732;28;20029;-82
2023/01/01 08:48:35;;;;;;;6.38;2.15;;;;;;;-148.88;96.22;75691.91;4996929;28;20025;-82
2023/01/01 08:51:01;;;;;;;6.00;2.10;;;;;;;-148.88;98.14;75708.16;5014190;28;20478;-82
2023/01/01 08:53:28;;;;;;;5.45;2.33;;;;;;;-148.88;98.96;75712.22;4996555;28;20026;-82
2023/01/01 08:58:54;;;;;;;5.70;2.20;;;;;;;-148.88;99.62;75724.41;4977066;28;20403;-81
2023/01/01 09:01:20;;;;;;;6.50;2.28;;;;;;;-148.88;99.70;75724.41;5014696;28;20491;-82
2023/01/01 09:03:46;;;;;;;6.15;2.15;;;;;;;-148.88;100.00;75738.63;5013994;28;20026;-81
2023/01/01 09:06:12;;;;;;;6.43;2.25;;;;;;;-148.88;100.00;75754.88;4996271;28;20032;-82
2023/01/01 09:08:37;;;;;;;7.47;2.38;;;;;;;-148.88;100.00;75760.97;4995669;28;20054;-81
2023/01/01 09:11:03;;;;;;;4.38;2.08;;;;;;;-148.88;100.00;75760.97;4995517;28;20117;-82
2023/01/01 09:13:30;;;;;;;5.72;2.25;;;;;;;-148.88;100.00;75750.81;4996067;28;20070;-82
2023/01/01 09:15:56;;;;;;;6.82;2.67;;;;;;;-148.88;100.00;75785.34;5014706;28;20030;-83
2023/01/01 09:18:21;;;;;;;5.45;2.50;;;;;;;-148.88;100.00;75789.41;4996575;28;20028;-81
2023/01/01 09:20:46;;;;;;;7.05;2.20;;;;;;;-148.88;100.00;75799.56;5013964;28;20382;-82
2023/01/01 09:23:12;;;;;;;7.95;2.50;;;;;;;-148.88;100.00;75828.00;5013778;28;20479;-81
2023/01/01 09:25:38;;;;;;;4.72;2.13;;;;;;;-148.88;100.00;75825.97;5013703;28;20076;-81
2023/01/01 09:28:11;;;;;;;10.27;2.85;;;;;;;-148.88;100.00;75840.19;5014006;28;20148;-81
2023/01/01 09:30:36;;;;;;;5.67;1.70;;;;;;;-148.88;100.00;75856.44;4996261;28;20022;-81
2023/01/01 09:33:02;;;;;;;7.43;2.42;;;;;;;-148.88;100.00;75874.72;5014950;28;20041;-81
2023/01/01 09:35:28;;;;;;;5.32;2.50;;;;;;;-148.88;100.00;75890.97;5015166;28;20037;-81
2023/01/01 09:37:54;;;;;;;9.88;2.97;;;;;;;-148.88;100.00;75893.00;5017128;28;20077;-80
2023/01/01 09:40:37;;;;;;;7.65;2.83;;;;;;;-148.88;100.00;75905.19;4999395;28;20120;-80
2023/01/01 09:43:36;;;;;;;7.95;2.63;;;;;;;-148.88;100.00;75911.28;4999622;28;20064;-80
2023/01/01 09:46:07;;;;;;;6.40;2.80;;;;;;;-148.88;100.00;75911.28;4999842;28;20033;-79
2023/01/01 09:48:36;;;;;;;7.50;2.60;;;;;;;-148.88;100.00;75927.53;4999983;28;20025;-80
2023/01/01 09:51:06;;;;;;;6.82;2.78;;;;;;;-148.88;100.00;75925.50;5017051;28;20080;-79
2023/01/01 09:53:55;;;;;;;7.70;2.58;;;;;;;-148.88;100.00;75931.59;5017785;28;20474;-81
2023/01/01 09:56:26;;;;;;;6.75;2.75;;;;;;;-148.88;100.00;75927.53;5000311;28;20414;-81
2023/01/01 09:58:51;;;;;;;7.13;2.70;;;;;;;-148.88;100.00;75927.53;5000049;28;20075;-81
2023/01/01 10:01:35;;;;;;;8.27;2.63;;;;;;;-148.88;100.00;75933.63;5018124;28;20026;-82
2023/01/01 10:04:17;;;;;;;7.57;2.63;;;;;;;-148.88;100.00;75935.66;5017933;28;20022;-81
2023/01/01 10:06:53;;;;;;;5.15;2.08;;;;;;;-148.88;100.00;75933.63;4999741;28;20036;-80
2023/01/01 10:09:41;;;;;;;5.68;2.28;;;;;;;-148.88;100.00;75947.84;5000060;28;20069;-81
2023/01/01 10:12:40;;;;;;;6.53;2.20;;;;;;;-148.88;100.00;75947.84;5000905;28;20451;-81
2023/01/01 10:15:24;;;;;;;7.63;2.53;;;;;;;-148.88;100.00;75972.22;5000768;28;20084;-81
2023/01/01 10:17:54;;;;;;;7.45;3.15;;;;;;;-148.88;100.00;75980.34;5000575;28;20033;-81
2023/01/01 10:21:02;;;;;;;4.78;2.50;;;;;;;-148.88;100.00;75980.34;5016400;28;20034;-83
2023/01/01 10:23:34;;;;;;;8.13;2.90;;;;;;;-148.88;100.00;76006.75;5002448;28;20087;-80
2023/01/01 10:26:07;;;;;;;6.05;2.65;;;;;;;-148.88;100.00;76002.69;5003985;28;20386;-80
2023/01/01 10:28:37;;;;;;;5.50;1.85;;;;;;;-148.88;100.00;76010.81;5019086;28;20449;-82
2023/01/01 10:31:19;;;;;;;7.20;2.70;;;;;;;-148.88;100.00;76008.78;5018582;28;20374;-81
2023/01/01 10:33:46;;;;;;;7.22;2.90;;;;;;;-148.88;100.00;76004.72;5017598;28;20048;-80
2023/01/01 10:36:14;;;;;;;7.90;2.83;;;;;;;-148.88;100.00;75996.59;4999480;28;20498;-80
2023/01/01 10:38:40;;;;;;;7.47;2.60;;;;;;;-148.88;100.00;76000.66;5019794;28;20033;-81
2023/01/01 10:41:08;;;;;;;6.82;3.00;;;;;;;-148.88;100.00;75994.56;5001327;28;20024;-79
2023/01/01 10:43:34;;;;;;;5.82;2.25;;;;;;;-148.88;100.00;75994.56;5021835;28;20084;-81
2023/01/01 10:46:01;;;;;;;6.43;3.35;;;;;;;-148.88;100.00;75992.53;5018997;28;20505;-84
2023/01/01 10:48:29;;;;;;;6.82;3.40;;;;;;;-148.88;100.00;75990.50;5000138;28;20037;-82
2023/01/01 10:51:00;;;;;;;8.07;3.88;;;;;;;-148.88;100.00;75984.41;5000586;28;20029;-83
2023/01/01 10:53:31;;;;;;;7.13;3.53;;;;;;;-148.88;100.00;75978.31;5017178;28;20061;-82
2023/01/01 10:56:01;;;;;;;10.05;3.88;;;;;;;-148.88;100.00;75996.59;5016704;28;20038;-82
2023/01/01 10:58:39;;;;;;;9.70;4.00;;;;;;;-148.88;100.00;75998.63;5016296;28;20072;-84
2023/01/01 11:01:08;;;;;;;7.38;3.60;;;;;;;-148.88;100.00;76008.78;5016534;28;20026;-83
2023/01/01 11:03:33;;;;;;;6.65;3.42;;;;;;;-148.88;100.00;75996.59;5016035;28;20037;-83
2023/01/01 11:06:25;;;;;;;4.75;2.05;;;;;;;-148.88;100.00;75994.56;5016060;28;20504;-83
2023/01/01 11:08:53;;;;;;;8.15;3.70;;;;;;;-148.88;100.00;75982.38;5016101;28;20025;-83
2023/01/01 11:11:21;;;;;;;5.72;3.85;;;;;;;-148.88;100.00;75996.59;5016336;28;20071;-83
2023/01/01 11:13:53;;;;;;;5.22;3.67;;;;;;;-148.88;100.00;75996.59;5017760;28;20026;-83
2023/01/01 11:16:18;;;;;;;8.98;3.92;;;;;;;-148.88;100.00;76004.72;5016431;28;20121;-83
2023/01/01 11:18:44;;;;;;;9.27;3.88;;;;;;;-148.88;100.00;76008.78;5017479;28;20022;-83
2023/01/01 11:21:09;;;;;;;8.82;3.53;;;;;;;-148.88;100.00;75996.59;5017197;28;20028;-82
2023/01/01 11:23:55;;;;;;;5.90;3.20;;;;;;;-148.88;100.00;75988.47;5019322;28;20082;-83
2023/01/01 11:26:30;;;;;;;5.97;3.30;;;;;;;-148.88;100.00;75984.41;5009761;28;20038;-83
2023/01/01 11:29:15;;;;;;;7.45;3.92;;;;;;;-148.88;100.00;75986.44;5007664;28;20429;-85
2023/01/01 11:31:43;;;;;;;6.57;3.78;;;;;;;-148.88;100.00;75994.56;5016859;28;20033;-82
2023/01/01 11:35:06;;;;;;;8.10;3.83;;;;;;;-148.88;100.00;75988.47;5019288;28;20028;-82
2023/01/01 11:37:36;;;;;;;6.57;3.63;;;;;;;-148.88;100.00;76004.72;4998989;28;20040;-82